createdAt,value
2022-08-24T00:00:07.627Z,1017.53
2022-08-24T00:01:07.836Z,1017.57
2022-08-24T00:02:06.323Z,1017.57
2022-08-24T00:03:10.486Z,1017.57
2022-08-24T00:04:06.825Z,1017.52
2022-08-24T00:05:09.573Z,1017.52
2022-08-24T00:06:09.321Z,1017.52
2022-08-24T00:07:15.884Z,1017.54
2022-08-24T00:08:09.957Z,1017.51
2022-08-24T00:09:08.229Z,1017.47
2022-08-24T00:10:09.406Z,1017.51
2022-08-24T00:11:12.055Z,1017.56
2022-08-24T00:12:09.212Z,1017.53
2022-08-24T00:13:12.546Z,1017.56
2022-08-24T00:14:09.858Z,1017.55
2022-08-24T00:15:12.052Z,1017.57
2022-08-24T00:16:10.460Z,1017.59
2022-08-24T00:17:12.612Z,1017.53
2022-08-24T00:18:11.806Z,1017.56
2022-08-24T00:19:11.315Z,1017.58
2022-08-24T00:20:11.628Z,1017.61
2022-08-24T00:21:11.958Z,1017.53
2022-08-24T00:22:14.113Z,1017.58
2022-08-24T00:23:13.380Z,1017.56
2022-08-24T00:24:12.738Z,1017.58
2022-08-24T00:25:13.054Z,1017.59
2022-08-24T00:26:13.345Z,1017.53
2022-08-24T00:27:15.525Z,1017.59
2022-08-24T00:28:15.393Z,1017.56
2022-08-24T00:29:16.115Z,1017.56
2022-08-24T00:30:14.598Z,1017.59
2022-08-24T00:31:14.676Z,1017.56
2022-08-24T00:32:14.937Z,1017.52
2022-08-24T00:33:16.261Z,1017.56
2022-08-24T00:34:17.446Z,1017.54
2022-08-24T00:35:15.839Z,1017.54
2022-08-24T00:36:18.019Z,1017.53
2022-08-24T00:37:16.400Z,1017.57
2022-08-24T00:38:19.643Z,1017.56
2022-08-24T00:39:17.068Z,1017.57
2022-08-24T00:40:17.396Z,1017.53
2022-08-24T00:41:17.682Z,1017.54
2022-08-24T00:42:19.887Z,1017.53
2022-08-24T00:43:20.160Z,1017.51
2022-08-24T00:44:18.549Z,1017.50
2022-08-24T00:45:18.863Z,1017.49
2022-08-24T00:46:19.186Z,1017.51
2022-08-24T00:47:21.368Z,1017.49
2022-08-24T00:48:22.756Z,1017.53
2022-08-24T00:49:20.054Z,1017.50
2022-08-24T00:50:20.331Z,1017.52
2022-08-24T00:51:22.517Z,1017.50
2022-08-24T00:52:22.698Z,1017.49
2022-08-24T00:53:24.076Z,1017.47
2022-08-24T00:54:23.080Z,1017.49
2022-08-24T00:55:24.727Z,1017.38
2022-08-24T00:56:22.035Z,1017.49
2022-08-24T00:57:25.638Z,1017.44
2022-08-24T00:58:25.639Z,1017.48
2022-08-24T00:59:24.007Z,1017.48
2022-08-24T01:00:25.213Z,1017.50
2022-08-24T01:01:24.353Z,1017.54
2022-08-24T01:02:24.800Z,1017.53
2022-08-24T01:03:27.890Z,1017.55
2022-08-24T01:04:25.321Z,1017.53
2022-08-24T01:05:26.536Z,1017.56
2022-08-24T01:06:26.730Z,1017.53
2022-08-24T01:07:26.053Z,1017.53
2022-08-24T01:08:29.273Z,1017.53
2022-08-24T01:09:25.697Z,1017.47
2022-08-24T01:10:29.336Z,1017.51
2022-08-24T01:11:30.879Z,1017.53
2022-08-24T01:12:28.386Z,1017.55
2022-08-24T01:13:30.723Z,1017.53
2022-08-24T01:14:27.937Z,1017.52
2022-08-24T01:15:28.367Z,1017.54
2022-08-24T01:16:29.086Z,1017.61
2022-08-24T01:17:28.944Z,1017.58
2022-08-24T01:18:30.108Z,1017.64
2022-08-24T01:19:30.290Z,1017.58
2022-08-24T01:20:29.672Z,1017.61
2022-08-24T01:21:30.515Z,1017.61
2022-08-24T01:22:30.242Z,1017.61
2022-08-24T01:23:36.453Z,1017.59
2022-08-24T01:24:31.793Z,1017.58
2022-08-24T01:25:30.190Z,1017.61
2022-08-24T01:26:30.720Z,1017.65
2022-08-24T01:27:30.750Z,1017.61
2022-08-24T01:28:31.048Z,1017.63
2022-08-24T01:29:33.252Z,1017.65
2022-08-24T01:30:36.732Z,1017.64
2022-08-24T01:31:33.011Z,1017.64
2022-08-24T01:32:34.193Z,1017.63
2022-08-24T01:33:34.318Z,1017.65
2022-08-24T01:34:32.852Z,1017.64
2022-08-24T01:35:35.046Z,1017.64
2022-08-24T01:36:35.240Z,1017.62
2022-08-24T01:37:35.438Z,1017.60
2022-08-24T01:38:37.611Z,1017.66
2022-08-24T01:39:34.407Z,1017.68
2022-08-24T01:40:35.608Z,1017.69
2022-08-24T01:41:34.969Z,1017.65
2022-08-24T01:42:37.150Z,1017.68
2022-08-24T01:43:37.515Z,1017.62
2022-08-24T01:44:37.536Z,1017.65
2022-08-24T01:45:37.801Z,1017.62
2022-08-24T01:46:38.482Z,1017.61
2022-08-24T01:47:38.619Z,1017.67
2022-08-24T01:48:38.805Z,1017.62
2022-08-24T01:49:39.010Z,1017.62
2022-08-24T01:50:39.212Z,1017.62
2022-08-24T01:51:37.922Z,1017.66
2022-08-24T01:53:03.417Z,1017.70
2022-08-24T01:53:41.433Z,1017.67
2022-08-24T01:54:43.515Z,1017.68
2022-08-24T01:55:39.072Z,1017.68
2022-08-24T01:56:41.259Z,1017.62
2022-08-24T01:57:43.423Z,1017.62
2022-08-24T01:58:39.971Z,1017.62
2022-08-24T01:59:42.149Z,1017.63
2022-08-24T02:00:40.540Z,1017.64
2022-08-24T02:01:40.915Z,1017.63
2022-08-24T02:02:45.053Z,1017.67
2022-08-24T02:03:41.343Z,1017.65
2022-08-24T02:04:44.311Z,1017.69
2022-08-24T02:05:41.913Z,1017.72
2022-08-24T02:06:42.223Z,1017.72
2022-08-24T02:07:46.417Z,1017.71
2022-08-24T02:08:42.840Z,1017.77
2022-08-24T02:09:45.026Z,1017.71
2022-08-24T02:10:56.457Z,1017.71
2022-08-24T02:11:44.737Z,1017.69
2022-08-24T02:12:44.897Z,1017.72
2022-08-24T02:13:44.276Z,1017.68
2022-08-24T02:14:44.588Z,1017.66
2022-08-24T02:15:48.088Z,1017.74
2022-08-24T02:16:45.152Z,1017.67
2022-08-24T02:17:46.465Z,1017.70
2022-08-24T02:18:45.719Z,1017.69
2022-08-24T02:19:46.037Z,1017.64
2022-08-24T02:20:48.226Z,1017.65
2022-08-24T02:21:46.618Z,1017.61
2022-08-24T02:22:47.776Z,1017.66
2022-08-24T02:23:49.160Z,1017.62
2022-08-24T02:24:47.461Z,1017.64
2022-08-24T02:25:49.653Z,1017.65
2022-08-24T02:26:48.025Z,1017.65
2022-08-24T02:27:49.830Z,1017.60
2022-08-24T02:28:50.556Z,1017.60
2022-08-24T02:29:48.820Z,1017.62
2022-08-24T02:30:51.052Z,1017.60
2022-08-24T02:31:49.422Z,1017.59
2022-08-24T02:32:50.657Z,1017.63
2022-08-24T02:33:50.039Z,1017.63
2022-08-24T02:34:50.347Z,1017.59
2022-08-24T02:35:52.553Z,1017.67
2022-08-24T02:36:50.930Z,1017.64
2022-08-24T02:37:52.727Z,1017.66
2022-08-24T02:38:51.477Z,1017.64
2022-08-24T02:39:51.783Z,1017.63
2022-08-24T02:40:53.893Z,1017.62
2022-08-24T02:41:52.425Z,1017.60
2022-08-24T02:42:53.536Z,1017.61
2022-08-24T02:43:53.043Z,1017.64
2022-08-24T02:44:53.748Z,1017.59
2022-08-24T02:45:55.545Z,1017.65
2022-08-24T02:46:53.933Z,1017.61
2022-08-24T02:47:55.104Z,1017.57
2022-08-24T02:49:08.336Z,1017.59
2022-08-24T02:49:55.815Z,1017.55
2022-08-24T02:50:56.983Z,1017.60
2022-08-24T02:51:55.374Z,1017.54
2022-08-24T02:52:56.732Z,1017.58
2022-08-24T02:53:59.347Z,1017.58
2022-08-24T02:54:59.528Z,1017.57
2022-08-24T02:55:57.409Z,1017.57
2022-08-24T02:56:57.823Z,1017.58
2022-08-24T02:57:58.688Z,1017.60
2022-08-24T02:58:59.453Z,1017.58
2022-08-24T02:59:59.612Z,1017.57
2022-08-24T03:00:59.013Z,1017.62
2022-08-24T03:01:59.196Z,1017.57
2022-08-24T03:03:00.095Z,1017.56
2022-08-24T03:04:00.738Z,1017.53
2022-08-24T03:05:00.904Z,1017.55
2022-08-24T03:05:59.411Z,1017.53
2022-08-24T03:06:59.711Z,1017.53
2022-08-24T03:08:00.863Z,1017.53
2022-08-24T03:09:02.214Z,1017.57
2022-08-24T03:10:00.595Z,1017.58
2022-08-24T03:11:01.859Z,1017.56
2022-08-24T03:12:02.015Z,1017.60
2022-08-24T03:13:04.513Z,1017.55
2022-08-24T03:14:02.863Z,1017.60
2022-08-24T03:15:04.044Z,1017.60
2022-08-24T03:16:03.478Z,1017.58
2022-08-24T03:17:03.585Z,1017.53
2022-08-24T03:18:06.445Z,1017.56
2022-08-24T03:19:03.230Z,1017.56
2022-08-24T03:20:06.386Z,1017.62
2022-08-24T03:21:03.794Z,1017.58
2022-08-24T03:22:04.994Z,1017.53
2022-08-24T03:23:05.339Z,1017.62
2022-08-24T03:24:05.183Z,1017.57
2022-08-24T03:25:06.857Z,1017.60
2022-08-24T03:26:07.045Z,1017.65
2022-08-24T03:27:07.241Z,1017.61
2022-08-24T03:28:10.214Z,1017.63
2022-08-24T03:29:08.154Z,1017.64
2022-08-24T03:30:08.368Z,1017.66
2022-08-24T03:31:08.603Z,1017.70
2022-08-24T03:32:08.768Z,1017.65
2022-08-24T03:33:08.198Z,1017.72
2022-08-24T03:34:08.551Z,1017.69
2022-08-24T03:35:09.733Z,1017.69
2022-08-24T03:36:13.552Z,1017.72
2022-08-24T03:37:09.432Z,1017.69
2022-08-24T03:38:09.503Z,1017.65
2022-08-24T03:39:09.013Z,1017.71
2022-08-24T03:40:22.750Z,1017.70
2022-08-24T03:41:12.398Z,1017.66
2022-08-24T03:42:09.939Z,1017.69
2022-08-24T03:43:14.099Z,1017.70
2022-08-24T03:44:10.559Z,1017.73
2022-08-24T03:45:12.780Z,1017.66
2022-08-24T03:46:13.110Z,1017.66
2022-08-24T03:47:11.454Z,1017.72
2022-08-24T03:48:15.640Z,1017.69
2022-08-24T03:49:12.089Z,1017.67
2022-08-24T03:50:14.251Z,1017.68
2022-08-24T03:51:12.648Z,1017.63
2022-08-24T03:52:14.908Z,1017.70
2022-08-24T03:53:16.091Z,1017.68
2022-08-24T03:54:15.308Z,1017.73
2022-08-24T03:55:16.932Z,1017.76
2022-08-24T03:56:14.235Z,1017.79
2022-08-24T03:57:14.557Z,1017.78
2022-08-24T03:58:18.266Z,1017.72
2022-08-24T03:59:19.751Z,1017.78
2022-08-24T04:00:15.411Z,1017.78
2022-08-24T04:01:15.763Z,1017.79
2022-08-24T04:02:16.095Z,1017.78
2022-08-24T04:03:19.394Z,1017.79
2022-08-24T04:04:16.693Z,1017.82
2022-08-24T04:05:18.077Z,1017.81
2022-08-24T04:06:17.353Z,1017.84
2022-08-24T04:07:17.696Z,1017.84
2022-08-24T04:08:18.913Z,1017.82
2022-08-24T04:09:18.323Z,1017.85
2022-08-24T04:10:21.113Z,1017.83
2022-08-24T04:11:18.902Z,1017.88
2022-08-24T04:12:19.267Z,1017.87
2022-08-24T04:13:22.543Z,1017.88
2022-08-24T04:14:27.364Z,1017.90
2022-08-24T04:15:21.060Z,1017.87
2022-08-24T04:16:20.383Z,1017.90
2022-08-24T04:17:22.523Z,1017.88
2022-08-24T04:18:26.905Z,1017.87
2022-08-24T04:19:21.092Z,1017.89
2022-08-24T04:20:21.436Z,1017.88
2022-08-24T04:21:23.636Z,1017.86
2022-08-24T04:22:23.848Z,1017.87
2022-08-24T04:23:39.355Z,1017.90
2022-08-24T04:24:23.633Z,1017.87
2022-08-24T04:25:25.040Z,1017.90
2022-08-24T04:26:44.387Z,1017.93
2022-08-24T04:27:24.545Z,1017.94
2022-08-24T04:28:26.729Z,1017.96
2022-08-24T04:29:24.156Z,1017.89
2022-08-24T04:30:24.495Z,1017.94
2022-08-24T04:31:28.509Z,1017.98
2022-08-24T04:32:25.092Z,1017.98
2022-08-24T04:33:29.242Z,1017.99
2022-08-24T04:34:25.579Z,1017.99
2022-08-24T04:35:25.809Z,1017.98
2022-08-24T04:36:28.032Z,1018.01
2022-08-24T04:37:29.125Z,1018.03
2022-08-24T04:38:28.576Z,1018.00
2022-08-24T04:39:28.723Z,1018.01
2022-08-24T04:40:27.162Z,1018.01
2022-08-24T04:41:31.437Z,1018.10
2022-08-24T04:42:29.489Z,1018.01
2022-08-24T04:43:28.865Z,1018.11
2022-08-24T04:44:30.236Z,1018.09
2022-08-24T04:45:30.434Z,1018.13
2022-08-24T04:46:30.575Z,1018.08
2022-08-24T04:47:30.018Z,1018.15
2022-08-24T04:48:31.363Z,1018.15
2022-08-24T04:49:29.785Z,1018.06
2022-08-24T04:50:31.961Z,1018.04
2022-08-24T04:51:36.190Z,1018.07
2022-08-24T04:52:30.601Z,1018.02
2022-08-24T04:53:34.287Z,1018.01
2022-08-24T04:54:31.100Z,1017.98
2022-08-24T04:55:34.746Z,1017.98
2022-08-24T04:56:33.516Z,1018.01
2022-08-24T04:57:32.641Z,1017.92
2022-08-24T04:58:32.058Z,1017.98
2022-08-24T04:59:33.220Z,1017.96
2022-08-24T05:00:34.620Z,1017.98
2022-08-24T05:01:34.389Z,1017.96
2022-08-24T05:02:39.091Z,1017.95
2022-08-24T05:03:34.384Z,1018.00
2022-08-24T05:04:34.530Z,1017.98
2022-08-24T05:05:35.895Z,1018.01
2022-08-24T05:06:34.194Z,1017.97
2022-08-24T05:07:34.425Z,1017.97
2022-08-24T05:08:37.589Z,1017.98
2022-08-24T05:09:34.912Z,1017.94
2022-08-24T05:10:38.531Z,1017.90
2022-08-24T05:11:36.424Z,1017.97
2022-08-24T05:12:37.658Z,1017.89
2022-08-24T05:13:37.000Z,1017.88
2022-08-24T05:14:37.155Z,1017.90
2022-08-24T05:15:37.574Z,1017.89
2022-08-24T05:16:37.796Z,1017.87
2022-08-24T05:17:39.116Z,1017.89
2022-08-24T05:18:37.547Z,1017.90
2022-08-24T05:19:37.804Z,1017.97
2022-08-24T05:20:38.011Z,1017.90
2022-08-24T05:21:39.560Z,1017.96
2022-08-24T05:22:39.485Z,1017.98
2022-08-24T05:23:43.881Z,1017.99
2022-08-24T05:24:39.000Z,1018.00
2022-08-24T05:25:41.220Z,1017.99
2022-08-24T05:26:39.535Z,1018.01
2022-08-24T05:27:41.713Z,1017.97
2022-08-24T05:28:43.913Z,1018.01
2022-08-24T05:29:40.392Z,1017.95
2022-08-24T05:30:43.030Z,1017.98
2022-08-24T05:31:42.757Z,1018.02
2022-08-24T05:32:41.280Z,1018.06
2022-08-24T05:33:43.524Z,1018.06
2022-08-24T05:34:43.671Z,1018.02
2022-08-24T05:35:44.656Z,1018.02
2022-08-24T05:36:44.022Z,1018.06
2022-08-24T05:37:42.725Z,1018.04
2022-08-24T05:38:46.366Z,1018.02
2022-08-24T05:39:45.203Z,1018.04
2022-08-24T05:40:45.311Z,1018.07
2022-08-24T05:41:45.487Z,1018.02
2022-08-24T05:42:45.077Z,1018.11
2022-08-24T05:43:47.441Z,1018.12
2022-08-24T05:44:46.466Z,1018.16
2022-08-24T05:45:44.899Z,1018.07
2022-08-24T05:46:47.192Z,1018.16
2022-08-24T05:47:45.357Z,1018.17
2022-08-24T05:48:53.100Z,1018.18
2022-08-24T05:49:46.862Z,1018.23
2022-08-24T05:50:46.143Z,1018.23
2022-08-24T05:51:48.312Z,1018.22
2022-08-24T05:52:48.498Z,1018.22
2022-08-24T05:53:47.763Z,1018.27
2022-08-24T05:54:49.156Z,1018.20
2022-08-24T05:55:49.345Z,1018.18
2022-08-24T05:56:47.764Z,1018.22
2022-08-24T05:57:49.980Z,1018.19
2022-08-24T05:58:49.801Z,1018.18
2022-08-24T05:59:48.596Z,1018.17
2022-08-24T06:00:50.786Z,1018.20
2022-08-24T06:01:49.200Z,1018.21
2022-08-24T06:02:49.435Z,1018.27
2022-08-24T06:03:52.681Z,1018.21
2022-08-24T06:04:51.699Z,1018.25
2022-08-24T06:05:51.919Z,1018.28
2022-08-24T06:06:52.589Z,1018.27
2022-08-24T06:07:52.781Z,1018.30
2022-08-24T06:08:54.965Z,1018.28
2022-08-24T06:09:51.402Z,1018.29
2022-08-24T06:10:53.584Z,1018.32
2022-08-24T06:11:51.884Z,1018.36
2022-08-24T06:12:54.063Z,1018.37
2022-08-24T06:13:59.052Z,1018.37
2022-08-24T06:14:52.650Z,1018.42
2022-08-24T06:16:19.635Z,1018.43
2022-08-24T06:16:56.125Z,1018.47
2022-08-24T06:17:55.340Z,1018.44
2022-08-24T06:18:55.591Z,1018.46
2022-08-24T06:19:54.051Z,1018.50
2022-08-24T06:20:55.522Z,1018.47
2022-08-24T06:21:56.471Z,1018.51
2022-08-24T06:22:54.785Z,1018.46
2022-08-24T06:23:58.970Z,1018.50
2022-08-24T06:24:55.295Z,1018.50
2022-08-24T06:25:55.546Z,1018.49
2022-08-24T06:26:57.727Z,1018.48
2022-08-24T06:27:56.043Z,1018.51
2022-08-24T06:28:57.184Z,1018.50
2022-08-24T06:29:58.542Z,1018.52
2022-08-24T06:30:56.914Z,1018.51
2022-08-24T06:31:59.131Z,1018.49
2022-08-24T06:32:57.364Z,1018.54
2022-08-24T06:33:58.496Z,1018.53
2022-08-24T06:34:59.379Z,1018.48
2022-08-24T06:35:58.067Z,1018.54
2022-08-24T06:36:58.306Z,1018.60
2022-08-24T06:37:58.551Z,1018.52
2022-08-24T06:39:01.881Z,1018.48
2022-08-24T06:40:00.989Z,1018.51
2022-08-24T06:41:01.130Z,1018.54
2022-08-24T06:41:59.692Z,1018.56
2022-08-24T06:42:59.997Z,1018.63
2022-08-24T06:44:04.113Z,1018.68
2022-08-24T06:45:02.379Z,1018.57
2022-08-24T06:46:00.825Z,1018.59
2022-08-24T06:47:01.147Z,1018.60
2022-08-24T06:48:01.293Z,1018.62
2022-08-24T06:49:05.482Z,1018.67
2022-08-24T06:50:01.846Z,1018.70
2022-08-24T06:51:02.077Z,1018.53
2022-08-24T06:52:04.256Z,1018.59
2022-08-24T06:53:02.722Z,1018.61
2022-08-24T06:54:06.765Z,1018.63
2022-08-24T06:55:03.101Z,1018.63
2022-08-24T06:56:03.381Z,1018.55
2022-08-24T06:57:05.570Z,1018.65
2022-08-24T06:58:03.925Z,1018.59
2022-08-24T06:59:06.174Z,1018.66
2022-08-24T07:00:04.453Z,1018.60
2022-08-24T07:01:08.118Z,1018.64
2022-08-24T07:02:05.016Z,1018.60
2022-08-24T07:03:08.630Z,1018.61
2022-08-24T07:04:07.622Z,1018.68
2022-08-24T07:05:06.790Z,1018.67
2022-08-24T07:06:06.950Z,1018.64
2022-08-24T07:07:08.296Z,1018.60
2022-08-24T07:08:06.741Z,1018.68
2022-08-24T07:09:08.963Z,1018.62
2022-08-24T07:10:07.333Z,1018.58
2022-08-24T07:11:07.550Z,1018.59
2022-08-24T07:12:11.194Z,1018.52
2022-08-24T07:13:09.921Z,1018.57
2022-08-24T07:14:11.071Z,1018.60
2022-08-24T07:15:12.527Z,1018.66
2022-08-24T07:16:10.042Z,1018.58
2022-08-24T07:17:09.140Z,1018.60
2022-08-24T07:18:11.329Z,1018.68
2022-08-24T07:19:13.512Z,1018.58
2022-08-24T07:20:09.972Z,1018.63
2022-08-24T07:21:10.328Z,1018.70
2022-08-24T07:22:12.410Z,1018.61
2022-08-24T07:23:10.828Z,1018.67
2022-08-24T07:24:15.004Z,1018.66
2022-08-24T07:25:11.341Z,1018.60
2022-08-24T07:26:12.569Z,1018.58
2022-08-24T07:27:12.858Z,1018.58
2022-08-24T07:28:13.255Z,1018.62
2022-08-24T07:29:43.682Z,1018.68
2022-08-24T07:30:26.894Z,1018.68
2022-08-24T07:31:14.039Z,1018.68
2022-08-24T07:32:13.231Z,1018.59
2022-08-24T07:33:13.496Z,1018.69
2022-08-24T07:34:16.953Z,1018.68
2022-08-24T07:35:15.648Z,1018.71
2022-08-24T07:36:22.154Z,1018.76
2022-08-24T07:37:17.503Z,1018.73
2022-08-24T07:38:14.831Z,1018.72
2022-08-24T07:39:16.068Z,1018.73
2022-08-24T07:40:16.450Z,1018.67
2022-08-24T07:42:23.226Z,1018.67
2022-08-24T07:43:17.234Z,1018.63
2022-08-24T07:44:18.401Z,1018.69
2022-08-24T07:45:18.575Z,1018.71
2022-08-24T07:46:18.817Z,1018.67
2022-08-24T07:48:18.699Z,1018.78
2022-08-24T07:49:33.282Z,1018.79
2022-08-24T07:50:21.128Z,1018.77
2022-08-24T07:51:18.483Z,1018.82
2022-08-24T07:52:18.796Z,1018.84
2022-08-24T07:53:23.843Z,1018.84
2022-08-24T07:54:22.214Z,1018.86
2022-08-24T07:55:19.540Z,1018.90
2022-08-24T07:56:19.778Z,1018.89
2022-08-24T07:57:20.023Z,1018.92
2022-08-24T07:58:22.220Z,1018.87
2022-08-24T07:59:22.422Z,1018.86
2022-08-24T08:00:22.590Z,1018.85
2022-08-24T08:01:22.831Z,1018.93
2022-08-24T08:02:22.977Z,1018.86
2022-08-24T08:03:21.647Z,1018.89
2022-08-24T08:04:23.834Z,1018.93
2022-08-24T08:05:25.025Z,1018.91
2022-08-24T08:06:22.480Z,1018.90
2022-08-24T08:07:24.631Z,1018.99
2022-08-24T08:08:24.832Z,1018.90
2022-08-24T08:09:23.385Z,1018.91
2022-08-24T08:10:25.567Z,1018.96
2022-08-24T08:11:23.873Z,1018.84
2022-08-24T08:12:26.036Z,1018.80
2022-08-24T08:13:24.347Z,1018.97
2022-08-24T08:14:26.531Z,1018.98
2022-08-24T08:15:26.748Z,1018.97
2022-08-24T08:16:26.958Z,1019.01
2022-08-24T08:17:27.102Z,1018.99
2022-08-24T08:18:25.655Z,1018.98
2022-08-24T08:19:25.894Z,1018.98
2022-08-24T08:20:28.115Z,1019.05
2022-08-24T08:21:26.384Z,1019.05
2022-08-24T08:22:26.624Z,1019.03
2022-08-24T08:23:26.857Z,1019.08
2022-08-24T08:24:27.101Z,1019.04
2022-08-24T08:25:29.277Z,1019.11
2022-08-24T08:26:27.594Z,1019.14
2022-08-24T08:27:27.828Z,1019.11
2022-08-24T08:28:35.562Z,1019.11
2022-08-24T08:29:29.299Z,1019.09
2022-08-24T08:30:30.492Z,1019.10
2022-08-24T08:31:28.958Z,1019.08
2022-08-24T08:32:29.172Z,1019.07
2022-08-24T08:33:30.365Z,1019.05
2022-08-24T08:34:31.723Z,1019.04
2022-08-24T08:35:33.215Z,1019.02
2022-08-24T08:36:30.290Z,1019.04
2022-08-24T08:37:30.547Z,1018.99
2022-08-24T08:38:31.652Z,1019.03
2022-08-24T08:39:33.001Z,1019.06
2022-08-24T08:40:33.207Z,1019.02
2022-08-24T08:41:33.379Z,1019.04
2022-08-24T08:42:31.935Z,1019.07
2022-08-24T08:43:32.963Z,1019.05
2022-08-24T08:44:32.513Z,1019.03
2022-08-24T08:45:34.694Z,1019.00
2022-08-24T08:46:40.097Z,1018.98
2022-08-24T08:47:34.322Z,1019.02
2022-08-24T08:48:34.529Z,1019.00
2022-08-24T08:49:35.938Z,1019.02
2022-08-24T08:50:36.137Z,1019.05
2022-08-24T08:51:34.572Z,1019.09
2022-08-24T08:52:36.768Z,1019.10
2022-08-24T08:53:38.929Z,1019.09
2022-08-24T08:54:35.393Z,1019.10
2022-08-24T08:55:37.572Z,1019.09
2022-08-24T08:56:35.876Z,1019.02
2022-08-24T08:57:38.145Z,1019.09
2022-08-24T08:58:42.122Z,1019.06
2022-08-24T08:59:36.728Z,1019.09
2022-08-24T09:00:38.916Z,1019.07
2022-08-24T09:01:44.164Z,1019.08
2022-08-24T09:02:41.994Z,1019.09
2022-08-24T09:03:38.722Z,1019.14
2022-08-24T09:04:38.189Z,1019.16
2022-08-24T09:05:38.437Z,1019.18
2022-08-24T09:06:38.690Z,1019.29
2022-08-24T09:07:42.350Z,1019.25
2022-08-24T09:08:40.034Z,1019.17
2022-08-24T09:09:41.394Z,1019.08
2022-08-24T09:10:39.743Z,1019.08
2022-08-24T09:11:43.888Z,1019.08
2022-08-24T09:12:40.214Z,1019.05
2022-08-24T09:13:44.450Z,1018.99
2022-08-24T09:14:42.680Z,1019.00
2022-08-24T09:15:43.088Z,1019.03
2022-08-24T09:16:43.348Z,1019.10
2022-08-24T09:17:41.632Z,1019.11
2022-08-24T09:18:42.920Z,1019.10
2022-08-24T09:19:42.225Z,1019.07
2022-08-24T09:20:44.395Z,1018.99
2022-08-24T09:21:44.602Z,1019.03
2022-08-24T09:22:43.014Z,1019.02
2022-08-24T09:23:44.232Z,1019.07
2022-08-24T09:24:43.531Z,1019.04
2022-08-24T09:25:43.776Z,1019.10
2022-08-24T09:26:47.422Z,1019.19
2022-08-24T09:27:44.255Z,1018.93
2022-08-24T09:28:47.413Z,1019.19
2022-08-24T09:29:45.695Z,1019.21
2022-08-24T09:30:45.387Z,1019.18
2022-08-24T09:31:47.314Z,1019.19
2022-08-24T09:32:46.693Z,1019.12
2022-08-24T09:33:47.513Z,1019.26
2022-08-24T09:34:47.273Z,1019.09
2022-08-24T09:35:47.425Z,1019.20
2022-08-24T09:36:48.750Z,1019.09
2022-08-24T09:37:48.001Z,1019.13
2022-08-24T09:38:50.472Z,1019.23
2022-08-24T09:39:47.733Z,1019.11
2022-08-24T09:40:49.844Z,1019.05
2022-08-24T09:41:49.154Z,1019.26
2022-08-24T09:42:49.576Z,1019.25
2022-08-24T09:43:52.738Z,1019.26
2022-08-24T09:44:50.148Z,1019.13
2022-08-24T09:45:52.231Z,1019.21
2022-08-24T09:46:51.658Z,1019.26
2022-08-24T09:47:50.884Z,1019.30
2022-08-24T09:48:52.322Z,1019.18
2022-08-24T09:49:52.514Z,1019.15
2022-08-24T09:50:50.947Z,1019.25
2022-08-24T09:51:51.212Z,1019.07
2022-08-24T09:52:51.448Z,1019.09
2022-08-24T09:53:55.852Z,1019.21
2022-08-24T09:54:53.577Z,1019.12
2022-08-24T09:55:52.259Z,1019.10
2022-08-24T09:56:59.819Z,1019.14
2022-08-24T09:58:01.844Z,1019.20
2022-08-24T09:58:57.003Z,1019.36
2022-08-24T09:59:53.332Z,1019.37
2022-08-24T10:00:54.550Z,1019.19
2022-08-24T10:01:55.761Z,1019.24
2022-08-24T10:02:54.243Z,1019.12
2022-08-24T10:03:57.605Z,1019.12
2022-08-24T10:04:56.692Z,1019.13
2022-08-24T10:05:55.161Z,1019.12
2022-08-24T10:06:57.240Z,1019.16
2022-08-24T10:07:57.425Z,1019.18
2022-08-24T10:08:58.601Z,1019.31
2022-08-24T10:09:56.296Z,1019.11
2022-08-24T10:10:58.477Z,1019.12
2022-08-24T10:11:58.666Z,1019.11
2022-08-24T10:12:57.496Z,1019.17
2022-08-24T10:14:00.420Z,1019.21
2022-08-24T10:14:59.547Z,1019.10
2022-08-24T10:15:59.736Z,1019.09
2022-08-24T10:16:59.896Z,1019.13
2022-08-24T10:18:00.595Z,1019.25
2022-08-24T10:19:02.760Z,1019.24
2022-08-24T10:19:59.218Z,1019.37
2022-08-24T10:21:01.409Z,1019.21
2022-08-24T10:21:59.723Z,1019.22
2022-08-24T10:23:01.929Z,1019.09
2022-08-24T10:24:01.276Z,1019.13
2022-08-24T10:25:00.559Z,1019.06
2022-08-24T10:26:02.763Z,1019.06
2022-08-24T10:27:02.955Z,1019.07
2022-08-24T10:28:03.395Z,1019.23
2022-08-24T10:29:04.614Z,1019.29
2022-08-24T10:30:01.918Z,1019.26
2022-08-24T10:31:04.116Z,1019.18
2022-08-24T10:32:04.412Z,1019.12
2022-08-24T10:33:04.523Z,1019.09
2022-08-24T10:34:05.925Z,1019.27
2022-08-24T10:35:05.805Z,1019.32
2022-08-24T10:36:05.100Z,1019.32
2022-08-24T10:37:07.767Z,1019.37
2022-08-24T10:38:04.265Z,1019.38
2022-08-24T10:39:07.778Z,1019.34
2022-08-24T10:40:06.277Z,1019.37
2022-08-24T10:41:05.889Z,1019.35
2022-08-24T10:42:07.057Z,1019.41
2022-08-24T10:43:05.439Z,1019.39
2022-08-24T10:44:09.609Z,1019.43
2022-08-24T10:45:07.966Z,1019.43
2022-08-24T10:46:06.348Z,1019.42
2022-08-24T10:47:08.551Z,1019.37
2022-08-24T10:48:06.873Z,1019.32
2022-08-24T10:49:10.121Z,1019.31
2022-08-24T10:50:09.281Z,1019.30
2022-08-24T10:51:07.708Z,1019.19
2022-08-24T10:52:09.903Z,1019.15
2022-08-24T10:53:08.209Z,1019.31
2022-08-24T10:54:09.382Z,1019.36
2022-08-24T10:55:10.729Z,1019.32
2022-08-24T10:56:09.059Z,1019.34
2022-08-24T10:57:12.253Z,1019.40
2022-08-24T10:58:10.531Z,1019.39
2022-08-24T10:59:13.695Z,1019.38
2022-08-24T11:00:12.035Z,1019.37
2022-08-24T11:01:11.587Z,1019.37
2022-08-24T11:02:12.924Z,1019.34
2022-08-24T11:03:12.951Z,1019.44
2022-08-24T11:04:14.307Z,1019.39
2022-08-24T11:05:11.635Z,1019.40
2022-08-24T11:06:11.911Z,1019.36
2022-08-24T11:07:12.153Z,1019.36
2022-08-24T11:08:14.359Z,1019.34
2022-08-24T11:09:19.767Z,1019.29
2022-08-24T11:10:14.748Z,1019.36
2022-08-24T11:11:13.308Z,1019.26
2022-08-24T11:12:13.546Z,1019.30
2022-08-24T11:13:13.785Z,1019.30
2022-08-24T11:14:17.971Z,1019.35
2022-08-24T11:15:17.358Z,1019.30
2022-08-24T11:16:14.579Z,1019.32
2022-08-24T11:17:18.226Z,1019.27
2022-08-24T11:18:15.247Z,1019.27
2022-08-24T11:19:17.476Z,1019.34
2022-08-24T11:20:15.808Z,1019.29
2022-08-24T11:21:17.992Z,1019.31
2022-08-24T11:22:16.311Z,1019.32
2022-08-24T11:23:16.561Z,1019.27
2022-08-24T11:24:17.762Z,1019.29
2022-08-24T11:25:17.082Z,1019.26
2022-08-24T11:26:19.271Z,1019.28
2022-08-24T11:27:17.591Z,1019.30
2022-08-24T11:28:17.865Z,1019.29
2022-08-24T11:29:21.127Z,1019.33
2022-08-24T11:30:18.345Z,1019.30
2022-08-24T11:31:20.623Z,1019.26
2022-08-24T11:32:20.712Z,1019.25
2022-08-24T11:33:19.295Z,1019.29
2022-08-24T11:34:22.441Z,1019.26
2022-08-24T11:35:19.644Z,1019.22
2022-08-24T11:36:21.142Z,1019.25
2022-08-24T11:37:24.426Z,1019.18
2022-08-24T11:38:22.320Z,1019.27
2022-08-24T11:39:23.754Z,1019.18
2022-08-24T11:40:21.153Z,1019.25
2022-08-24T11:41:21.370Z,1019.22
2022-08-24T11:42:29.100Z,1019.20
2022-08-24T11:43:24.795Z,1019.20
2022-08-24T11:44:25.060Z,1019.19
2022-08-24T11:45:23.170Z,1019.20
2022-08-24T11:46:24.674Z,1019.17
2022-08-24T11:47:23.008Z,1019.19
2022-08-24T11:48:29.588Z,1019.18
2022-08-24T11:49:27.367Z,1019.21
2022-08-24T11:50:25.605Z,1019.16
2022-08-24T11:51:25.795Z,1019.21
2022-08-24T11:52:25.324Z,1019.21
2022-08-24T11:53:26.671Z,1019.22
2022-08-24T11:54:25.892Z,1019.24
2022-08-24T11:55:26.050Z,1019.24
2022-08-24T11:56:27.445Z,1019.23
2022-08-24T11:57:26.625Z,1019.22
2022-08-24T11:58:27.053Z,1019.22
2022-08-24T11:59:27.200Z,1019.33
2022-08-24T12:00:26.626Z,1019.23
2022-08-24T12:01:28.808Z,1019.26
2022-08-24T12:02:27.229Z,1019.23
2022-08-24T12:03:28.957Z,1019.22
2022-08-24T12:04:27.768Z,1019.23
2022-08-24T12:05:27.998Z,1019.25
2022-08-24T12:06:32.313Z,1019.25
2022-08-24T12:07:28.485Z,1019.22
2022-08-24T12:08:30.749Z,1019.31
2022-08-24T12:09:30.973Z,1019.25
2022-08-24T12:10:32.733Z,1019.26